createdAt,value
2023-05-11T00:02:15.225Z,100389.38
2023-05-11T00:04:42.767Z,100381.66
2023-05-11T00:07:09.996Z,100384.34
2023-05-11T00:09:38.522Z,100380.94
2023-05-11T00:12:06.228Z,100381.78
2023-05-11T00:14:33.416Z,100385.22
2023-05-11T00:17:00.540Z,100376.56
2023-05-11T00:19:28.132Z,100379.09
2023-05-11T00:21:55.392Z,100378.19
2023-05-11T00:24:22.450Z,100370.38
2023-05-11T00:26:49.609Z,100368.66
2023-05-11T00:29:16.837Z,100357.50
2023-05-11T00:31:48.182Z,100360.09
2023-05-11T00:34:16.568Z,100366.94
2023-05-11T00:36:43.702Z,100370.38
2023-05-11T00:39:12.617Z,100370.47
2023-05-11T00:41:39.861Z,100379.06
2023-05-11T00:44:07.035Z,100374.66
2023-05-11T00:46:34.192Z,100381.56
2023-05-11T00:49:01.445Z,100390.22
2023-05-11T00:51:28.498Z,100386.69
2023-05-11T00:53:55.947Z,100384.09
2023-05-11T00:56:23.298Z,100390.13
2023-05-11T00:58:50.494Z,100384.94
2023-05-11T01:01:18.777Z,100390.06
2023-05-11T01:03:46.544Z,100383.91
2023-05-11T01:06:28.150Z,100386.47
2023-05-11T01:09:06.598Z,100388.03
2023-05-11T01:11:47.364Z,100389.69
2023-05-11T01:14:23.540Z,100387.03
2023-05-11T01:16:54.154Z,100388.78
2023-05-11T01:19:56.835Z,100383.50
2023-05-11T01:22:52.130Z,100386.09
2023-05-11T01:25:44.417Z,100382.56
2023-05-11T01:28:50.474Z,100382.53
2023-05-11T01:31:18.172Z,100390.22
2023-05-11T01:33:58.365Z,100387.53
2023-05-11T01:36:29.241Z,100390.06
2023-05-11T01:38:58.280Z,100390.91
2023-05-11T01:41:26.517Z,100397.75
2023-05-11T01:43:54.891Z,100393.41
2023-05-11T01:46:22.865Z,100394.16
2023-05-11T01:48:51.539Z,100395.78
2023-05-11T01:51:20.912Z,100400.03
2023-05-11T01:53:48.011Z,100392.28
2023-05-11T01:56:15.185Z,100393.97
2023-05-11T01:58:42.520Z,100394.84
2023-05-11T02:01:09.947Z,100390.53
2023-05-11T02:03:37.445Z,100389.69
2023-05-11T02:06:05.398Z,100394.84
2023-05-11T02:08:34.006Z,100394.84
2023-05-11T02:11:01.393Z,100388.00
2023-05-11T02:13:29.184Z,100391.44
2023-05-11T02:15:56.978Z,100393.13
2023-05-11T02:18:24.368Z,100390.53
2023-05-11T02:20:59.415Z,100387.88
2023-05-11T02:23:27.816Z,100389.56
2023-05-11T02:25:55.329Z,100395.56
2023-05-11T02:28:22.939Z,100392.16
2023-05-11T02:30:52.442Z,100391.31
2023-05-11T02:33:31.809Z,100397.34
2023-05-11T02:35:59.079Z,100396.47
2023-05-11T02:38:33.684Z,100398.28
2023-05-11T02:41:07.431Z,100397.50
2023-05-11T02:43:37.201Z,100395.91
2023-05-11T02:46:07.104Z,100401.13
2023-05-11T02:48:43.119Z,100405.50
2023-05-11T02:51:11.417Z,100401.25
2023-05-11T02:53:45.529Z,100403.94
2023-05-11T02:56:12.775Z,100401.47
2023-05-11T02:58:39.902Z,100399.84
2023-05-11T03:01:27.968Z,100402.53
2023-05-11T03:03:57.302Z,100395.78
2023-05-11T03:06:26.409Z,100399.44
2023-05-11T03:08:53.654Z,100395.22
2023-05-11T03:11:21.250Z,100402.25
2023-05-11T03:13:50.185Z,100406.63
2023-05-11T03:16:21.017Z,100400.75
2023-05-11T03:18:49.500Z,100400.88
2023-05-11T03:21:18.649Z,100406.19
2023-05-11T03:23:46.108Z,100402.09
2023-05-11T03:26:14.826Z,100405.72
2023-05-11T03:28:41.989Z,100406.75
2023-05-11T03:31:09.164Z,100408.63
2023-05-11T03:33:36.396Z,100404.47
2023-05-11T03:36:06.153Z,100411.56
2023-05-11T03:38:34.385Z,100406.59
2023-05-11T03:41:01.763Z,100412.00
2023-05-11T03:43:32.016Z,100412.19
2023-05-11T03:45:59.343Z,100414.97
2023-05-11T03:48:26.959Z,100418.56
2023-05-11T03:50:54.044Z,100418.72
2023-05-11T03:53:21.220Z,100417.19
2023-05-11T03:55:50.090Z,100414.78
2023-05-11T03:58:17.329Z,100415.78
2023-05-11T04:00:44.472Z,100417.59
2023-05-11T04:03:12.434Z,100421.09
2023-05-11T04:05:39.777Z,100417.69
2023-05-11T04:08:09.624Z,100418.56
2023-05-11T04:10:38.287Z,100422.94
2023-05-11T04:13:05.614Z,100422.09
2023-05-11T04:15:32.813Z,100417.88
2023-05-11T04:17:59.929Z,100418.78
2023-05-11T04:20:27.196Z,100419.72
2023-05-11T04:22:54.750Z,100426.66
2023-05-11T04:25:21.988Z,100426.66
2023-05-11T04:27:49.164Z,100428.41
2023-05-11T04:30:16.647Z,100423.22
2023-05-11T04:32:44.033Z,100420.59
2023-05-11T04:35:11.400Z,100425.69
2023-05-11T04:37:39.793Z,100422.00
2023-05-11T04:40:09.338Z,100428.75
2023-05-11T04:42:41.432Z,100421.66
2023-05-11T04:45:17.715Z,100420.63
2023-05-11T04:47:45.356Z,100426.53
2023-05-11T04:50:13.379Z,100424.59
2023-05-11T04:52:40.567Z,100420.25
2023-05-11T04:55:08.610Z,100425.66
2023-05-11T04:57:35.825Z,100419.72
2023-05-11T05:00:07.226Z,100421.38
2023-05-11T05:02:35.743Z,100421.25
2023-05-11T05:05:03.244Z,100427.09
2023-05-11T05:07:32.116Z,100423.50
2023-05-11T05:09:59.303Z,100425.31
2023-05-11T05:12:26.525Z,100423.56
2023-05-11T05:14:53.725Z,100433.28
2023-05-11T05:17:21.008Z,100422.88
2023-05-11T05:19:48.168Z,100429.91
2023-05-11T05:22:15.940Z,100428.19
2023-05-11T05:24:43.102Z,100422.16
2023-05-11T05:27:10.628Z,100419.56
2023-05-11T05:29:38.168Z,100425.63
2023-05-11T05:32:06.061Z,100422.88
2023-05-11T05:34:33.277Z,100436.50
2023-05-11T05:37:00.634Z,100427.53
2023-05-11T05:39:27.836Z,100428.13
2023-05-11T05:41:55.013Z,100435.81
2023-05-11T05:44:22.926Z,100438.44
2023-05-11T05:46:50.107Z,100427.09
2023-05-11T05:49:18.036Z,100430.59
2023-05-11T05:51:45.531Z,100433.22
2023-05-11T05:54:13.494Z,100434.13
2023-05-11T05:56:41.140Z,100435.06
2023-05-11T05:59:09.285Z,100431.72
2023-05-11T06:01:36.763Z,100435.28
2023-05-11T06:04:04.057Z,100438.00
2023-05-11T06:06:32.294Z,100440.72
2023-05-11T06:08:59.370Z,100439.88
2023-05-11T06:11:27.421Z,100448.47
2023-05-11T06:13:54.821Z,100444.03
2023-05-11T06:16:21.926Z,100439.56
2023-05-11T06:18:49.084Z,100445.56
2023-05-11T06:21:16.356Z,100442.03
2023-05-11T06:23:43.809Z,100447.13
2023-05-11T06:26:11.995Z,100447.88
2023-05-11T06:28:39.909Z,100448.66
2023-05-11T06:31:11.637Z,100451.22
2023-05-11T06:33:40.722Z,100442.41
2023-05-11T06:36:12.945Z,100447.47
2023-05-11T06:38:40.040Z,100445.59
2023-05-11T06:41:11.343Z,100447.19
2023-05-11T06:43:38.617Z,100435.75
2023-05-11T06:46:17.811Z,100439.16
2023-05-11T06:48:45.299Z,100435.63
2023-05-11T06:51:12.673Z,100432.72
2023-05-11T06:53:39.866Z,100429.66
2023-05-11T06:56:07.827Z,100429.44
2023-05-11T06:58:35.356Z,100423.78
2023-05-11T07:01:05.439Z,100427.59
2023-05-11T07:03:32.626Z,100425.56
2023-05-11T07:05:59.943Z,100431.56
2023-05-11T07:08:27.115Z,100432.34
2023-05-11T07:10:54.327Z,100422.44
2023-05-11T07:13:21.627Z,100425.44
2023-05-11T07:15:49.844Z,100428.56
2023-05-11T07:18:17.651Z,100419.50
2023-05-11T07:20:46.928Z,100422.28
2023-05-11T07:23:14.144Z,100416.41
2023-05-11T07:25:41.350Z,100418.81
2023-05-11T07:28:08.513Z,100411.59
2023-05-11T07:30:35.757Z,100414.94
2023-05-11T07:33:03.361Z,100415.75
2023-05-11T07:35:31.266Z,100414.50
2023-05-11T07:37:58.401Z,100425.44
2023-05-11T07:40:25.801Z,100420.69
2023-05-11T07:42:54.163Z,100424.97
2023-05-11T07:45:21.575Z,100423.41
2023-05-11T07:47:49.011Z,100426.19
2023-05-11T07:50:17.253Z,100422.97
2023-05-11T07:52:44.430Z,100415.34
2023-05-11T07:55:11.737Z,100419.16
2023-05-11T07:57:38.864Z,100422.19
2023-05-11T08:00:07.467Z,100421.69
2023-05-11T08:02:39.226Z,100411.38
2023-05-11T08:05:07.309Z,100420.22
2023-05-11T08:07:34.613Z,100416.03
2023-05-11T08:10:01.762Z,100418.78
2023-05-11T08:12:29.559Z,100416.84
2023-05-11T08:14:56.818Z,100409.72
2023-05-11T08:17:23.957Z,100415.88
2023-05-11T08:19:51.851Z,100413.31
2023-05-11T08:22:19.130Z,100414.22
2023-05-11T08:24:47.031Z,100413.53
2023-05-11T08:27:15.323Z,100415.38
2023-05-11T08:29:42.512Z,100416.38
2023-05-11T08:32:09.743Z,100407.59
2023-05-11T08:34:37.016Z,100408.47
2023-05-11T08:37:04.523Z,100413.53
2023-05-11T08:42:07.233Z,100398.88
2023-05-11T08:44:35.373Z,100398.56
2023-05-11T08:47:20.925Z,100394.09
2023-05-11T08:49:51.139Z,100393.69
2023-05-11T08:52:18.466Z,100389.44
2023-05-11T08:54:46.800Z,100382.53
2023-05-11T08:57:14.171Z,100379.44
2023-05-11T08:59:42.290Z,100377.53
2023-05-11T09:02:10.861Z,100377.16
2023-05-11T09:04:38.200Z,100365.06
2023-05-11T09:07:05.428Z,100369.63
2023-05-11T09:09:32.786Z,100368.34
2023-05-11T09:12:00.228Z,100370.56
2023-05-11T09:14:27.921Z,100364.44
2023-05-11T09:16:55.157Z,100363.28
2023-05-11T09:19:22.505Z,100362.94
2023-05-11T09:21:49.794Z,100361.22
2023-05-11T09:24:17.075Z,100364.47
2023-05-11T09:26:44.234Z,100358.84
2023-05-11T09:29:11.794Z,100356.53
2023-05-11T09:31:46.704Z,100351.06
2023-05-11T09:34:21.709Z,100351.16
2023-05-11T09:36:50.938Z,100349.22
2023-05-11T09:39:35.117Z,100345.72
2023-05-11T09:42:18.291Z,100350.72
2023-05-11T09:44:46.157Z,100339.09
2023-05-11T09:47:17.702Z,100341.41
2023-05-11T09:49:45.622Z,100341.97
2023-05-11T09:52:16.991Z,100337.22
2023-05-11T09:54:45.452Z,100342.94
2023-05-11T09:57:27.024Z,100338.91
2023-05-11T09:59:56.525Z,100338.22
2023-05-11T10:02:31.049Z,100334.19
2023-05-11T10:04:59.845Z,100323.97
2023-05-11T10:07:31.828Z,100323.66
2023-05-11T10:10:01.614Z,100320.97
2023-05-11T10:12:30.634Z,100319.19
2023-05-11T10:15:06.918Z,100326.22
2023-05-11T10:17:37.690Z,100315.97
2023-05-11T10:20:06.214Z,100323.16
2023-05-11T10:22:36.261Z,100321.72
2023-05-11T10:25:06.102Z,100333.28
2023-05-11T10:27:33.355Z,100342.34
2023-05-11T10:30:00.449Z,100344.41
2023-05-11T10:32:27.820Z,100367.78
2023-05-11T10:34:55.155Z,100377.00
2023-05-11T10:37:22.241Z,100392.69
2023-05-11T10:39:50.652Z,100372.38
2023-05-11T10:42:24.226Z,100392.75
2023-05-11T10:45:15.680Z,100395.69
2023-05-11T10:47:58.376Z,100382.81
2023-05-11T10:50:37.695Z,100374.19
2023-05-11T10:53:26.057Z,100366.56
2023-05-11T10:55:56.279Z,100336.25
2023-05-11T10:58:36.549Z,100333.66
2023-05-11T11:01:38.300Z,100330.22
2023-05-11T11:04:07.122Z,100332.72
2023-05-11T11:06:35.135Z,100323.69
2023-05-11T11:09:08.000Z,100320.69
2023-05-11T11:11:39.813Z,100318.50
2023-05-11T11:14:09.543Z,100313.59
2023-05-11T11:16:37.376Z,100312.00
2023-05-11T11:19:32.869Z,100309.75
2023-05-11T11:22:01.195Z,100298.69
2023-05-11T11:24:37.617Z,100296.19
2023-05-11T11:27:08.700Z,100297.50
2023-05-11T11:29:36.230Z,100296.41
2023-05-11T11:32:21.880Z,100294.88
2023-05-11T11:34:49.604Z,100291.66
2023-05-11T11:37:17.432Z,100285.03
2023-05-11T11:39:44.906Z,100282.56
2023-05-11T11:42:18.579Z,100284.53
2023-05-11T11:44:45.986Z,100277.22
2023-05-11T11:47:22.769Z,100271.31
2023-05-11T11:49:53.884Z,100270.13
2023-05-11T11:52:27.122Z,100261.84
2023-05-11T11:54:56.071Z,100260.53
2023-05-11T11:57:32.694Z,100255.38
2023-05-11T12:00:05.857Z,100256.59
2023-05-11T12:02:43.258Z,100257.03
2023-05-11T12:05:13.036Z,100250.56
2023-05-11T12:07:42.163Z,100248.84
2023-05-11T12:10:12.231Z,100249.00
2023-05-11T12:12:39.976Z,100248.09
2023-05-11T12:15:07.972Z,100241.31
2023-05-11T12:17:38.137Z,100249.53
2023-05-11T12:20:15.345Z,100255.28
2023-05-11T12:22:42.725Z,100251.84
2023-05-11T12:25:11.487Z,100262.56
2023-05-11T12:27:48.833Z,100262.84
2023-05-11T12:30:26.364Z,100272.66
2023-05-11T12:35:25.353Z,100278.91
2023-05-11T12:37:52.767Z,100278.53
2023-05-11T12:40:20.325Z,100273.66
2023-05-11T12:42:57.502Z,100265.44
2023-05-11T12:45:25.677Z,100265.19
2023-05-11T12:47:55.149Z,100267.53
2023-05-11T12:50:22.817Z,100265.72
2023-05-11T12:52:50.597Z,100266.00
2023-05-11T12:55:30.634Z,100254.91
2023-05-11T12:58:08.032Z,100263.78
2023-05-11T13:00:35.424Z,100255.78
2023-05-11T13:03:02.729Z,100258.97
2023-05-11T13:05:30.623Z,100259.53
2023-05-11T13:08:02.189Z,100258.44
2023-05-11T13:10:29.462Z,100264.38
2023-05-11T13:12:56.701Z,100262.63
2023-05-11T13:15:24.576Z,100268.72
2023-05-11T13:17:59.267Z,100267.06
2023-05-11T13:20:31.099Z,100265.59
2023-05-11T13:23:11.830Z,100266.84
2023-05-11T13:25:51.728Z,100273.31
2023-05-11T13:28:20.723Z,100263.06
2023-05-11T13:30:48.920Z,100279.88
2023-05-11T13:33:16.279Z,100282.88
2023-05-11T13:35:43.549Z,100294.78
2023-05-11T13:38:13.942Z,100298.09
2023-05-11T13:40:41.317Z,100294.16
2023-05-11T13:43:08.562Z,100297.03
2023-05-11T13:45:36.670Z,100290.28
2023-05-11T13:48:04.240Z,100292.22
2023-05-11T13:50:32.368Z,100292.28
2023-05-11T13:52:59.526Z,100295.03
2023-05-11T13:55:26.859Z,100293.50
2023-05-11T13:57:54.025Z,100291.88
2023-05-11T14:00:21.533Z,100294.56
2023-05-11T14:02:50.710Z,100285.03
2023-05-11T14:05:18.407Z,100285.13
2023-05-11T14:07:48.413Z,100286.91
2023-05-11T14:10:17.169Z,100279.13
2023-05-11T14:12:44.790Z,100277.44
2023-05-11T14:15:12.108Z,100273.13
2023-05-11T14:17:41.722Z,100258.31
2023-05-11T14:20:09.730Z,100260.06
2023-05-11T14:22:36.913Z,100267.00
2023-05-11T14:25:04.366Z,100270.47
2023-05-11T14:27:31.800Z,100266.06
2023-05-11T14:29:58.933Z,100258.16
2023-05-11T14:32:27.037Z,100260.78
2023-05-11T14:34:54.266Z,100255.47
2023-05-11T14:37:21.389Z,100254.59
2023-05-11T14:39:48.659Z,100252.88
2023-05-11T14:42:15.806Z,100244.28
2023-05-11T14:44:42.961Z,100253.91
2023-05-11T14:47:10.013Z,100248.69
2023-05-11T14:49:37.153Z,100248.72
2023-05-11T14:52:04.609Z,100252.25
2023-05-11T14:54:31.783Z,100248.75
2023-05-11T14:56:59.655Z,100249.63
2023-05-11T14:59:27.054Z,100245.38
2023-05-11T15:01:54.323Z,100254.06
2023-05-11T15:04:22.353Z,100252.38
2023-05-11T15:06:49.636Z,100253.25
2023-05-11T15:09:16.998Z,100246.25
2023-05-11T15:11:44.317Z,100249.69
2023-05-11T15:14:11.557Z,100252.25
2023-05-11T15:16:38.710Z,100252.25
2023-05-11T15:19:06.354Z,100256.63
2023-05-11T15:21:33.679Z,100247.94
2023-05-11T15:24:01.097Z,100258.38
2023-05-11T15:26:28.293Z,100269.69
2023-05-11T15:28:55.561Z,100288.84
2023-05-11T15:31:22.698Z,100334.13
2023-05-11T15:33:50.118Z,100327.22
2023-05-11T15:36:17.190Z,100340.38
2023-05-11T15:38:45.400Z,100343.06
2023-05-11T15:41:12.709Z,100344.91
2023-05-11T15:43:39.812Z,100345.81
2023-05-11T15:46:07.699Z,100340.66
2023-05-11T15:48:35.052Z,100340.72
2023-05-11T15:51:02.888Z,100340.72
2023-05-11T15:53:30.087Z,100340.72
2023-05-11T15:55:57.377Z,100347.69
2023-05-11T15:58:24.716Z,100350.34
2023-05-11T16:00:52.138Z,100358.13
2023-05-11T16:03:19.951Z,100355.53
2023-05-11T16:05:47.527Z,100352.06
2023-05-11T16:08:14.952Z,100350.38
2023-05-11T16:10:42.078Z,100336.50
2023-05-11T16:13:09.850Z,100315.69
2023-05-11T16:15:37.150Z,100313.06
2023-05-11T16:18:05.295Z,100314.84
2023-05-11T16:20:32.852Z,100314.84
2023-05-11T16:23:00.059Z,100309.63
2023-05-11T16:25:27.340Z,100316.53
2023-05-11T16:27:54.390Z,100313.09
2023-05-11T16:30:25.360Z,100312.22
2023-05-11T16:32:53.850Z,100314.84
2023-05-11T16:35:21.455Z,100304.44
2023-05-11T16:37:48.801Z,100294.03
2023-05-11T16:40:19.189Z,100299.25
2023-05-11T16:42:48.647Z,100307.88
2023-05-11T16:45:16.635Z,100307.84
2023-05-11T16:47:46.763Z,100307.84
2023-05-11T16:50:16.266Z,100307.78
2023-05-11T16:52:43.792Z,100318.19
2023-05-11T16:55:11.603Z,100312.19
2023-05-11T16:57:38.830Z,100306.97
2023-05-11T17:00:06.790Z,100306.91
2023-05-11T17:02:34.329Z,100306.91
2023-05-11T17:05:01.613Z,100299.97
2023-05-11T17:07:29.205Z,100299.09
2023-05-11T17:09:57.290Z,100302.56
2023-05-11T17:12:24.632Z,100302.56
2023-05-11T17:14:51.893Z,100300.81
2023-05-11T17:17:19.091Z,100308.59
2023-05-11T17:19:46.483Z,100310.31
2023-05-11T17:22:14.032Z,100301.63
2023-05-11T17:24:41.229Z,100302.50
2023-05-11T17:27:08.371Z,100298.13
2023-05-11T17:29:35.492Z,100298.09
2023-05-11T17:32:03.453Z,100297.19
2023-05-11T17:34:31.237Z,100304.97
2023-05-11T17:36:58.602Z,100298.91
2023-05-11T17:39:25.712Z,100301.50
2023-05-11T17:41:53.294Z,100307.50
2023-05-11T17:44:21.369Z,100307.47
2023-05-11T17:46:49.495Z,100308.28
2023-05-11T17:49:26.997Z,100299.63
2023-05-11T17:51:54.384Z,100314.28
2023-05-11T17:54:21.583Z,100313.38
2023-05-11T17:56:49.052Z,100320.25
2023-05-11T17:59:16.560Z,100315.91
2023-05-11T18:01:43.689Z,100316.75
2023-05-11T18:04:10.993Z,100321.06
2023-05-11T18:06:38.311Z,100318.47
2023-05-11T18:09:06.045Z,100323.63
2023-05-11T18:11:33.182Z,100325.38
2023-05-11T18:14:00.372Z,100316.69
2023-05-11T18:16:27.844Z,100324.41
2023-05-11T18:18:55.394Z,100327.84
2023-05-11T18:21:22.685Z,100324.34
2023-05-11T18:23:50.240Z,100320.88
2023-05-11T18:26:19.289Z,100325.25
2023-05-11T18:28:46.563Z,100329.50
2023-05-11T18:31:13.915Z,100334.69
2023-05-11T18:33:41.167Z,100330.41
2023-05-11T18:36:08.402Z,100333.81
2023-05-11T18:38:35.667Z,100332.91
2023-05-11T18:41:08.434Z,100330.28
2023-05-11T18:43:35.791Z,100330.19
2023-05-11T18:46:07.676Z,100331.94
2023-05-11T18:48:35.164Z,100327.53
2023-05-11T18:51:06.064Z,100329.22
2023-05-11T18:53:33.603Z,100328.31
2023-05-11T18:56:00.842Z,100325.66
2023-05-11T18:58:31.445Z,100324.72
2023-05-11T19:01:02.239Z,100328.16
2023-05-11T19:03:32.385Z,100322.97
2023-05-11T19:06:00.955Z,100323.78
2023-05-11T19:08:28.951Z,100325.50
2023-05-11T19:10:56.170Z,100322.00
2023-05-11T19:13:23.450Z,100316.78
2023-05-11T19:15:50.590Z,100320.25
2023-05-11T19:18:17.926Z,100328.00
2023-05-11T19:20:45.207Z,100330.59
2023-05-11T19:23:12.379Z,100337.47
2023-05-11T19:25:40.368Z,100336.59
2023-05-11T19:28:07.550Z,100338.28
2023-05-11T19:30:34.889Z,100332.19
2023-05-11T19:33:02.353Z,100326.00
2023-05-11T19:35:30.116Z,100332.88
2023-05-11T19:37:57.249Z,100328.59
2023-05-11T19:42:55.563Z,100330.16
2023-05-11T19:45:22.794Z,100324.09
2023-05-11T19:47:49.937Z,100330.09
2023-05-11T19:50:20.436Z,100329.22
2023-05-11T19:52:49.158Z,100330.88
2023-05-11T19:55:16.334Z,100332.53
2023-05-11T19:57:43.556Z,100332.47
2023-05-11T20:00:11.802Z,100327.22
2023-05-11T20:02:39.191Z,100324.59
2023-05-11T20:05:07.571Z,100330.66
2023-05-11T20:07:39.227Z,100321.06
2023-05-11T20:10:11.052Z,100320.09
2023-05-11T20:12:38.457Z,100321.75
2023-05-11T20:15:07.169Z,100317.41
2023-05-11T20:17:35.545Z,100318.31
2023-05-11T20:20:04.380Z,100319.16
2023-05-11T20:22:33.452Z,100318.31
2023-05-11T20:25:00.617Z,100327.91
2023-05-11T20:27:27.689Z,100322.81
2023-05-11T20:29:55.051Z,100318.53
2023-05-11T20:32:22.526Z,100309.97
2023-05-11T20:34:53.034Z,100315.94
2023-05-11T20:37:20.237Z,100319.41
2023-05-11T20:39:47.455Z,100315.19
2023-05-11T20:42:14.603Z,100314.34
2023-05-11T20:44:41.847Z,100320.44
2023-05-11T20:47:09.167Z,100320.44
2023-05-11T20:49:39.277Z,100321.31
2023-05-11T20:52:07.804Z,100323.03
2023-05-11T20:54:35.895Z,100315.31
2023-05-11T20:57:08.307Z,100321.31
2023-05-11T21:02:06.023Z,100311.75
2023-05-11T21:04:33.824Z,100309.97
2023-05-11T21:07:01.174Z,100315.06
2023-05-11T21:09:28.499Z,100317.63
2023-05-11T21:11:55.774Z,100321.91
2023-05-11T21:14:23.052Z,100314.06
2023-05-11T21:16:50.286Z,100321.81
2023-05-11T21:19:20.712Z,100328.66
2023-05-11T21:21:49.604Z,100315.72
2023-05-11T21:24:17.010Z,100319.13
2023-05-11T21:26:47.982Z,100318.22
2023-05-11T21:29:15.452Z,100319.88
2023-05-11T21:31:42.576Z,100313.84
2023-05-11T21:34:09.824Z,100317.22
2023-05-11T21:36:38.939Z,100313.75
2023-05-11T21:39:06.188Z,100320.66
2023-05-11T21:41:33.311Z,100313.72
2023-05-11T21:44:00.541Z,100307.63
2023-05-11T21:46:27.732Z,100316.19
2023-05-11T21:48:54.987Z,100317.00
2023-05-11T21:51:22.111Z,100326.34
2023-05-11T21:53:49.345Z,100321.13
2023-05-11T21:56:16.473Z,100321.97
2023-05-11T21:58:43.628Z,100322.00
2023-05-11T22:01:10.711Z,100318.63
2023-05-11T22:03:38.121Z,100322.88
2023-05-11T22:06:06.579Z,100320.28
2023-05-11T22:08:33.701Z,100316.78
2023-05-11T22:11:00.858Z,100320.16
2023-05-11T22:13:31.141Z,100321.78
2023-05-11T22:15:58.239Z,100318.19
2023-05-11T22:18:25.567Z,100324.13
2023-05-11T22:20:52.695Z,100327.47
2023-05-11T22:23:19.946Z,100318.91
2023-05-11T22:25:47.141Z,100324.13
2023-05-11T22:28:14.233Z,100320.59
2023-05-11T22:30:41.400Z,100325.72
2023-05-11T22:33:08.618Z,100319.66
2023-05-11T22:35:35.840Z,100322.22
2023-05-11T22:38:04.384Z,100323.09
2023-05-11T22:40:31.625Z,100319.69
2023-05-11T22:42:58.800Z,100316.16
2023-05-11T22:45:26.076Z,100315.28
2023-05-11T22:47:55.888Z,100319.47
2023-05-11T22:50:23.152Z,100316.00
2023-05-11T22:52:50.351Z,100320.28
2023-05-11T22:55:17.632Z,100310.72
2023-05-11T22:57:44.805Z,100308.94
2023-05-11T23:00:12.568Z,100313.31
2023-05-11T23:02:40.248Z,100314.16
2023-05-11T23:05:08.081Z,100315.78
2023-05-11T23:07:35.899Z,100314.94
2023-05-11T23:10:03.094Z,100315.84
2023-05-11T23:12:33.080Z,100314.94
2023-05-11T23:15:00.305Z,100320.94
2023-05-11T23:17:30.881Z,100327.84
2023-05-11T23:19:57.971Z,100327.84
2023-05-11T23:22:25.273Z,100321.78
2023-05-11T23:24:54.940Z,100320.94
2023-05-11T23:27:22.195Z,100325.09
2023-05-11T23:29:49.328Z,100319.81
2023-05-11T23:32:16.452Z,100318.91
2023-05-11T23:34:43.884Z,100324.06
2023-05-11T23:37:11.290Z,100331.84
2023-05-11T23:39:39.349Z,100321.53
2023-05-11T23:42:08.763Z,100323.28
2023-05-11T23:44:36.220Z,100325.09
2023-05-11T23:47:03.402Z,100323.31
2023-05-11T23:49:30.548Z,100323.28
2023-05-11T23:51:57.658Z,100318.91
2023-05-11T23:54:24.764Z,100319.66
2023-05-11T23:56:52.008Z,100335.03
2023-05-11T23:59:19.276Z,100332.34
